sensor_id;sensor_type;location;lat;lon;timestamp;P1;durP1;ratioP1;P2;durP2;ratioP2
15843;SDS011;50807;52.436;13.346;2023-06-22T00:00:20;8.10;;;7.40;;
15843;SDS011;50807;52.436;13.346;2023-06-22T00:00:52;6.90;;;6.40;;
15843;SDS011;50807;52.436;13.346;2023-06-22T00:01:23;6.97;;;6.47;;
15843;SDS011;50807;52.436;13.346;2023-06-22T00:01:54;7.33;;;6.83;;
15843;SDS011;50807;52.436;13.346;2023-06-22T00:02:26;7.17;;;6.67;;
15843;SDS011;50807;52.436;13.346;2023-06-22T00:02:57;7.33;;;6.83;;
15843;SDS011;50807;52.436;13.346;2023-06-22T00:03:28;7.17;;;6.67;;
15843;SDS011;50807;52.436;13.346;2023-06-22T00:04:00;7.60;;;7.10;;
15843;SDS011;50807;52.436;13.346;2023-06-22T00:04:32;6.80;;;6.30;;
15843;SDS011;50807;52.436;13.346;2023-06-22T00:05:03;7.17;;;6.57;;
15843;SDS011;50807;52.436;13.346;2023-06-22T00:05:35;7.67;;;7.07;;
15843;SDS011;50807;52.436;13.346;2023-06-22T00:06:06;7.33;;;6.83;;
15843;SDS011;50807;52.436;13.346;2023-06-22T00:06:37;7.73;;;7.13;;
15843;SDS011;50807;52.436;13.346;2023-06-22T00:07:08;7.00;;;6.50;;
15843;SDS011;50807;52.436;13.346;2023-06-22T00:07:39;7.47;;;6.97;;
15843;SDS011;50807;52.436;13.346;2023-06-22T00:08:10;7.20;;;6.70;;
15843;SDS011;50807;52.436;13.346;2023-06-22T00:08:42;7.60;;;7.00;;
15843;SDS011;50807;52.436;13.346;2023-06-22T00:09:13;8.53;;;7.83;;
15843;SDS011;50807;52.436;13.346;2023-06-22T00:09:44;7.47;;;6.80;;
15843;SDS011;50807;52.436;13.346;2023-06-22T00:10:16;7.33;;;6.83;;
15843;SDS011;50807;52.436;13.346;2023-06-22T00:10:46;7.00;;;6.50;;
15843;SDS011;50807;52.436;13.346;2023-06-22T00:11:17;7.80;;;7.10;;
15843;SDS011;50807;52.436;13.346;2023-06-22T00:11:50;7.50;;;7.00;;
15843;SDS011;50807;52.436;13.346;2023-06-22T00:12:20;7.17;;;6.67;;
15843;SDS011;50807;52.436;13.346;2023-06-22T00:12:51;6.83;;;6.33;;
15843;SDS011;50807;52.436;13.346;2023-06-22T00:13:22;7.27;;;6.77;;
15843;SDS011;50807;52.436;13.346;2023-06-22T00:13:54;7.10;;;6.60;;
15843;SDS011;50807;52.436;13.346;2023-06-22T00:14:24;7.07;;;6.57;;
15843;SDS011;50807;52.436;13.346;2023-06-22T00:14:55;6.70;;;6.20;;
15843;SDS011;50807;52.436;13.346;2023-06-22T00:15:27;7.50;;;6.80;;
15843;SDS011;50807;52.436;13.346;2023-06-22T00:15:58;7.30;;;6.73;;
15843;SDS011;50807;52.436;13.346;2023-06-22T00:16:29;7.00;;;6.50;;
15843;SDS011;50807;52.436;13.346;2023-06-22T00:17:03;7.07;;;6.57;;
15843;SDS011;50807;52.436;13.346;2023-06-22T00:17:34;6.83;;;6.33;;
15843;SDS011;50807;52.436;13.346;2023-06-22T00:18:04;7.17;;;6.50;;
15843;SDS011;50807;52.436;13.346;2023-06-22T00:18:37;6.73;;;6.23;;
15843;SDS011;50807;52.436;13.346;2023-06-22T00:19:08;6.67;;;6.17;;
15843;SDS011;50807;52.436;13.346;2023-06-22T00:19:43;6.90;;;6.40;;
15843;SDS011;50807;52.436;13.346;2023-06-22T00:20:14;7.10;;;6.60;;
15843;SDS011;50807;52.436;13.346;2023-06-22T00:20:47;6.90;;;6.40;;
15843;SDS011;50807;52.436;13.346;2023-06-22T00:21:18;7.33;;;6.77;;
15843;SDS011;50807;52.436;13.346;2023-06-22T00:21:50;6.73;;;6.23;;
15843;SDS011;50807;52.436;13.346;2023-06-22T00:22:22;6.97;;;6.47;;
15843;SDS011;50807;52.436;13.346;2023-06-22T00:22:58;7.17;;;6.67;;
15843;SDS011;50807;52.436;13.346;2023-06-22T00:23:30;6.83;;;6.27;;
15843;SDS011;50807;52.436;13.346;2023-06-22T00:24:04;7.53;;;6.93;;
15843;SDS011;50807;52.436;13.346;2023-06-22T00:24:36;7.80;;;6.20;;
15843;SDS011;50807;52.436;13.346;2023-06-22T00:25:07;6.50;;;6.00;;
15843;SDS011;50807;52.436;13.346;2023-06-22T00:25:40;7.30;;;6.70;;
15843;SDS011;50807;52.436;13.346;2023-06-22T00:26:10;6.53;;;6.03;;
15843;SDS011;50807;52.436;13.346;2023-06-22T00:26:41;6.77;;;6.27;;
15843;SDS011;50807;52.436;13.346;2023-06-22T00:27:12;6.87;;;6.37;;
15843;SDS011;50807;52.436;13.346;2023-06-22T00:27:44;6.27;;;5.77;;
15843;SDS011;50807;52.436;13.346;2023-06-22T00:28:15;6.43;;;5.97;;
15843;SDS011;50807;52.436;13.346;2023-06-22T00:28:45;6.67;;;6.17;;
15843;SDS011;50807;52.436;13.346;2023-06-22T00:29:17;6.80;;;6.30;;
15843;SDS011;50807;52.436;13.346;2023-06-22T00:29:48;6.17;;;5.77;;
15843;SDS011;50807;52.436;13.346;2023-06-22T00:30:19;6.67;;;6.17;;
15843;SDS011;50807;52.436;13.346;2023-06-22T00:30:51;5.97;;;5.57;;
15843;SDS011;50807;52.436;13.346;2023-06-22T00:31:22;6.90;;;6.40;;
15843;SDS011;50807;52.436;13.346;2023-06-22T00:31:53;6.27;;;5.77;;
15843;SDS011;50807;52.436;13.346;2023-06-22T00:32:24;6.73;;;6.13;;
15843;SDS011;50807;52.436;13.346;2023-06-22T00:32:55;6.73;;;6.23;;
15843;SDS011;50807;52.436;13.346;2023-06-22T00:33:26;6.40;;;6.00;;
15843;SDS011;50807;52.436;13.346;2023-06-22T00:33:58;6.40;;;5.90;;
15843;SDS011;50807;52.436;13.346;2023-06-22T00:34:29;6.60;;;6.03;;
15843;SDS011;50807;52.436;13.346;2023-06-22T00:35:01;5.87;;;5.47;;
15843;SDS011;50807;52.436;13.346;2023-06-22T00:35:32;5.93;;;5.47;;
15843;SDS011;50807;52.436;13.346;2023-06-22T00:36:04;6.90;;;6.33;;
15843;SDS011;50807;52.436;13.346;2023-06-22T00:36:37;6.00;;;5.60;;
15843;SDS011;50807;52.436;13.346;2023-06-22T00:37:10;6.00;;;5.60;;
15843;SDS011;50807;52.436;13.346;2023-06-22T00:37:42;6.30;;;5.80;;
15843;SDS011;50807;52.436;13.346;2023-06-22T00:38:13;6.50;;;5.83;;
15843;SDS011;50807;52.436;13.346;2023-06-22T00:38:44;6.53;;;6.03;;
15843;SDS011;50807;52.436;13.346;2023-06-22T00:39:15;5.90;;;5.50;;
15843;SDS011;50807;52.436;13.346;2023-06-22T00:39:46;6.30;;;5.70;;
15843;SDS011;50807;52.436;13.346;2023-06-22T00:40:17;5.90;;;5.40;;
15843;SDS011;50807;52.436;13.346;2023-06-22T00:40:51;6.20;;;5.70;;
15843;SDS011;50807;52.436;13.346;2023-06-22T00:41:22;6.47;;;5.97;;
15843;SDS011;50807;52.436;13.346;2023-06-22T00:41:53;6.13;;;5.63;;
15843;SDS011;50807;52.436;13.346;2023-06-22T00:42:25;5.80;;;5.40;;
15843;SDS011;50807;52.436;13.346;2023-06-22T00:42:56;6.37;;;5.93;;
15843;SDS011;50807;52.436;13.346;2023-06-22T00:43:27;6.00;;;5.50;;
15843;SDS011;50807;52.436;13.346;2023-06-22T00:43:59;5.60;;;5.20;;
15843;SDS011;50807;52.436;13.346;2023-06-22T00:44:30;5.97;;;5.57;;
15843;SDS011;50807;52.436;13.346;2023-06-22T00:45:01;5.80;;;5.40;;
15843;SDS011;50807;52.436;13.346;2023-06-22T00:45:33;6.10;;;5.70;;
15843;SDS011;50807;52.436;13.346;2023-06-22T00:46:06;6.80;;;6.30;;
15843;SDS011;50807;52.436;13.346;2023-06-22T00:46:38;6.33;;;5.93;;
15843;SDS011;50807;52.436;13.346;2023-06-22T00:47:09;5.90;;;5.40;;
15843;SDS011;50807;52.436;13.346;2023-06-22T00:47:42;5.90;;;5.50;;
15843;SDS011;50807;52.436;13.346;2023-06-22T00:48:14;6.50;;;5.93;;
15843;SDS011;50807;52.436;13.346;2023-06-22T00:48:46;5.80;;;5.40;;
15843;SDS011;50807;52.436;13.346;2023-06-22T00:49:17;6.27;;;5.80;;
15843;SDS011;50807;52.436;13.346;2023-06-22T00:49:49;6.63;;;6.13;;
15843;SDS011;50807;52.436;13.346;2023-06-22T00:50:23;6.00;;;5.60;;
15843;SDS011;50807;52.436;13.346;2023-06-22T00:50:56;5.90;;;5.50;;
15843;SDS011;50807;52.436;13.346;2023-06-22T00:51:28;6.00;;;5.50;;
15843;SDS011;50807;52.436;13.346;2023-06-22T00:51:59;5.87;;;5.47;;
15843;SDS011;50807;52.436;13.346;2023-06-22T00:52:30;6.07;;;5.63;;
15843;SDS011;50807;52.436;13.346;2023-06-22T00:53:03;6.30;;;5.80;;
15843;SDS011;50807;52.436;13.346;2023-06-22T00:53:38;6.93;;;6.40;;
15843;SDS011;50807;52.436;13.346;2023-06-22T00:54:11;5.97;;;5.57;;
15843;SDS011;50807;52.436;13.346;2023-06-22T00:54:43;6.40;;;5.90;;
15843;SDS011;50807;52.436;13.346;2023-06-22T00:55:15;6.17;;;5.67;;
15843;SDS011;50807;52.436;13.346;2023-06-22T00:55:48;6.37;;;5.87;;
15843;SDS011;50807;52.436;13.346;2023-06-22T00:56:21;6.10;;;5.60;;
15843;SDS011;50807;52.436;13.346;2023-06-22T00:56:54;5.67;;;5.27;;
15843;SDS011;50807;52.436;13.346;2023-06-22T00:57:27;5.80;;;5.37;;
15843;SDS011;50807;52.436;13.346;2023-06-22T00:57:58;6.50;;;6.00;;
15843;SDS011;50807;52.436;13.346;2023-06-22T00:58:29;6.00;;;5.60;;
15843;SDS011;50807;52.436;13.346;2023-06-22T00:59:01;6.30;;;5.70;;
15843;SDS011;50807;52.436;13.346;2023-06-22T00:59:33;5.70;;;5.23;;
15843;SDS011;50807;52.436;13.346;2023-06-22T01:00:05;5.60;;;5.13;;
15843;SDS011;50807;52.436;13.346;2023-06-22T01:00:51;6.03;;;5.53;;
15843;SDS011;50807;52.436;13.346;2023-06-22T01:01:21;6.13;;;5.53;;
15843;SDS011;50807;52.436;13.346;2023-06-22T01:01:53;5.73;;;5.27;;
15843;SDS011;50807;52.436;13.346;2023-06-22T01:02:24;6.93;;;6.33;;
15843;SDS011;50807;52.436;13.346;2023-06-22T01:02:55;5.70;;;5.20;;
15843;SDS011;50807;52.436;13.346;2023-06-22T01:03:27;5.80;;;5.30;;
15843;SDS011;50807;52.436;13.346;2023-06-22T01:03:58;5.97;;;5.47;;
15843;SDS011;50807;52.436;13.346;2023-06-22T01:04:34;5.97;;;5.47;;
15843;SDS011;50807;52.436;13.346;2023-06-22T01:05:07;5.90;;;5.50;;
15843;SDS011;50807;52.436;13.346;2023-06-22T01:05:40;5.80;;;5.40;;
15843;SDS011;50807;52.436;13.346;2023-06-22T01:06:13;5.30;;;4.90;;
15843;SDS011;50807;52.436;13.346;2023-06-22T01:06:58;5.67;;;5.27;;
15843;SDS011;50807;52.436;13.346;2023-06-22T01:07:42;5.00;;;4.60;;
15843;SDS011;50807;52.436;13.346;2023-06-22T01:08:31;5.80;;;5.30;;
15843;SDS011;50807;52.436;13.346;2023-06-22T01:09:15;5.57;;;5.17;;
15843;SDS011;50807;52.436;13.346;2023-06-22T01:09:55;5.23;;;4.83;;
15843;SDS011;50807;52.436;13.346;2023-06-22T01:10:36;5.80;;;5.40;;
15843;SDS011;50807;52.436;13.346;2023-06-22T01:11:16;5.53;;;5.03;;
15843;SDS011;50807;52.436;13.346;2023-06-22T01:11:54;5.07;;;4.70;;
15843;SDS011;50807;52.436;13.346;2023-06-22T01:12:30;5.27;;;4.87;;
15843;SDS011;50807;52.436;13.346;2023-06-22T01:13:11;5.60;;;5.20;;
15843;SDS011;50807;52.436;13.346;2023-06-22T01:13:54;6.70;;;4.97;;
15843;SDS011;50807;52.436;13.346;2023-06-22T01:14:34;5.47;;;4.90;;
15843;SDS011;50807;52.436;13.346;2023-06-22T01:15:13;5.60;;;5.20;;
15843;SDS011;50807;52.436;13.346;2023-06-22T01:15:51;5.43;;;5.03;;
15843;SDS011;50807;52.436;13.346;2023-06-22T01:16:30;5.50;;;5.10;;
15843;SDS011;50807;52.436;13.346;2023-06-22T01:17:07;5.40;;;5.00;;
15843;SDS011;50807;52.436;13.346;2023-06-22T01:17:43;5.40;;;5.00;;
15843;SDS011;50807;52.436;13.346;2023-06-22T01:18:16;5.27;;;4.87;;
15843;SDS011;50807;52.436;13.346;2023-06-22T01:18:50;5.27;;;4.87;;
15843;SDS011;50807;52.436;13.346;2023-06-22T01:19:29;5.30;;;4.90;;
15843;SDS011;50807;52.436;13.346;2023-06-22T01:20:13;5.17;;;4.77;;
15843;SDS011;50807;52.436;13.346;2023-06-22T01:20:49;5.37;;;4.97;;
15843;SDS011;50807;52.436;13.346;2023-06-22T01:21:22;5.30;;;4.90;;
15843;SDS011;50807;52.436;13.346;2023-06-22T01:21:56;5.73;;;5.10;;
15843;SDS011;50807;52.436;13.346;2023-06-22T01:22:33;5.63;;;5.23;;
15843;SDS011;50807;52.436;13.346;2023-06-22T01:23:21;5.67;;;5.17;;
15843;SDS011;50807;52.436;13.346;2023-06-22T01:24:02;5.80;;;5.33;;
15843;SDS011;50807;52.436;13.346;2023-06-22T01:24:51;5.60;;;5.20;;
15843;SDS011;50807;52.436;13.346;2023-06-22T01:25:36;5.63;;;5.13;;
15843;SDS011;50807;52.436;13.346;2023-06-22T01:26:19;5.50;;;5.10;;
15843;SDS011;50807;52.436;13.346;2023-06-22T01:27:00;5.70;;;5.30;;
15843;SDS011;50807;52.436;13.346;2023-06-22T01:27:59;4.67;;;4.37;;
15843;SDS011;50807;52.436;13.346;2023-06-22T01:28:51;6.10;;;5.00;;
15843;SDS011;50807;52.436;13.346;2023-06-22T01:29:25;5.30;;;4.90;;
15843;SDS011;50807;52.436;13.346;2023-06-22T01:29:59;5.50;;;5.10;;
15843;SDS011;50807;52.436;13.346;2023-06-22T01:30:33;6.30;;;5.80;;
15843;SDS011;50807;52.436;13.346;2023-06-22T01:31:04;5.70;;;5.10;;
15843;SDS011;50807;52.436;13.346;2023-06-22T01:31:39;5.80;;;5.40;;
15843;SDS011;50807;52.436;13.346;2023-06-22T01:32:13;6.10;;;5.60;;
15843;SDS011;50807;52.436;13.346;2023-06-22T01:32:44;5.53;;;5.13;;
15843;SDS011;50807;52.436;13.346;2023-06-22T01:33:17;5.47;;;5.07;;
15843;SDS011;50807;52.436;13.346;2023-06-22T01:33:50;5.70;;;5.10;;
15843;SDS011;50807;52.436;13.346;2023-06-22T01:34:25;6.07;;;5.57;;
15843;SDS011;50807;52.436;13.346;2023-06-22T01:35:00;5.23;;;4.70;;
15843;SDS011;50807;52.436;13.346;2023-06-22T01:35:34;5.80;;;5.40;;
15843;SDS011;50807;52.436;13.346;2023-06-22T01:36:07;5.60;;;5.20;;
15843;SDS011;50807;52.436;13.346;2023-06-22T01:36:40;5.80;;;5.40;;
15843;SDS011;50807;52.436;13.346;2023-06-22T01:37:12;5.63;;;5.23;;
15843;SDS011;50807;52.436;13.346;2023-06-22T01:37:45;5.80;;;5.40;;
15843;SDS011;50807;52.436;13.346;2023-06-22T01:38:17;6.07;;;5.47;;
15843;SDS011;50807;52.436;13.346;2023-06-22T01:38:48;5.53;;;5.13;;
15843;SDS011;50807;52.436;13.346;2023-06-22T01:39:20;6.17;;;5.67;;
15843;SDS011;50807;52.436;13.346;2023-06-22T01:39:53;5.37;;;4.87;;
15843;SDS011;50807;52.436;13.346;2023-06-22T01:40:26;6.03;;;5.53;;
15843;SDS011;50807;52.436;13.346;2023-06-22T01:40:58;5.83;;;5.33;;
15843;SDS011;50807;52.436;13.346;2023-06-22T01:41:33;5.40;;;5.00;;
15843;SDS011;50807;52.436;13.346;2023-06-22T01:42:08;5.60;;;5.20;;
15843;SDS011;50807;52.436;13.346;2023-06-22T01:42:40;6.17;;;5.70;;
15843;SDS011;50807;52.436;13.346;2023-06-22T01:43:13;5.37;;;5.00;;
15843;SDS011;50807;52.436;13.346;2023-06-22T01:43:45;6.17;;;5.77;;
15843;SDS011;50807;52.436;13.346;2023-06-22T01:44:19;5.87;;;5.40;;
15843;SDS011;50807;52.436;13.346;2023-06-22T01:44:51;5.73;;;5.23;;
15843;SDS011;50807;52.436;13.346;2023-06-22T01:45:24;5.30;;;4.90;;
15843;SDS011;50807;52.436;13.346;2023-06-22T01:45:56;5.30;;;4.90;;
15843;SDS011;50807;52.436;13.346;2023-06-22T01:46:31;5.73;;;5.30;;
15843;SDS011;50807;52.436;13.346;2023-06-22T01:47:05;6.13;;;5.63;;
15843;SDS011;50807;52.436;13.346;2023-06-22T01:47:37;5.77;;;5.37;;
15843;SDS011;50807;52.436;13.346;2023-06-22T01:48:08;6.00;;;5.57;;
15843;SDS011;50807;52.436;13.346;2023-06-22T01:48:40;5.63;;;5.23;;
15843;SDS011;50807;52.436;13.346;2023-06-22T01:49:12;6.13;;;5.63;;
15843;SDS011;50807;52.436;13.346;2023-06-22T01:49:43;5.63;;;5.13;;
15843;SDS011;50807;52.436;13.346;2023-06-22T01:50:15;6.10;;;5.60;;
15843;SDS011;50807;52.436;13.346;2023-06-22T01:50:46;6.40;;;5.90;;
15843;SDS011;50807;52.436;13.346;2023-06-22T01:51:18;6.27;;;5.80;;
15843;SDS011;50807;52.436;13.346;2023-06-22T01:51:50;5.80;;;5.40;;
15843;SDS011;50807;52.436;13.346;2023-06-22T01:52:21;5.83;;;5.43;;
15843;SDS011;50807;52.436;13.346;2023-06-22T01:52:52;5.63;;;5.23;;
15843;SDS011;50807;52.436;13.346;2023-06-22T01:53:23;6.03;;;5.63;;
15843;SDS011;50807;52.436;13.346;2023-06-22T01:53:55;6.20;;;5.70;;
15843;SDS011;50807;52.436;13.346;2023-06-22T01:54:27;5.53;;;5.13;;
15843;SDS011;50807;52.436;13.346;2023-06-22T01:54:57;6.00;;;5.60;;
15843;SDS011;50807;52.436;13.346;2023-06-22T01:55:28;5.67;;;5.27;;
15843;SDS011;50807;52.436;13.346;2023-06-22T01:55:59;5.57;;;5.17;;
15843;SDS011;50807;52.436;13.346;2023-06-22T01:56:31;5.60;;;5.20;;
15843;SDS011;50807;52.436;13.346;2023-06-22T01:57:02;6.23;;;5.73;;
15843;SDS011;50807;52.436;13.346;2023-06-22T01:57:34;6.50;;;6.00;;
15843;SDS011;50807;52.436;13.346;2023-06-22T01:58:07;6.40;;;5.80;;
15843;SDS011;50807;52.436;13.346;2023-06-22T01:59:34;5.57;;;5.17;;
15843;SDS011;50807;52.436;13.346;2023-06-22T02:00:17;6.23;;;5.73;;
15843;SDS011;50807;52.436;13.346;2023-06-22T02:00:54;6.13;;;5.70;;
15843;SDS011;50807;52.436;13.346;2023-06-22T02:01:31;7.10;;;6.53;;
15843;SDS011;50807;52.436;13.346;2023-06-22T02:02:13;6.77;;;6.23;;
15843;SDS011;50807;52.436;13.346;2023-06-22T02:02:51;6.47;;;5.87;;
15843;SDS011;50807;52.436;13.346;2023-06-22T02:03:30;5.87;;;5.40;;
15843;SDS011;50807;52.436;13.346;2023-06-22T02:04:06;6.33;;;5.83;;
15843;SDS011;50807;52.436;13.346;2023-06-22T02:04:44;6.47;;;5.97;;
15843;SDS011;50807;52.436;13.346;2023-06-22T02:05:20;5.93;;;5.43;;
15843;SDS011;50807;52.436;13.346;2023-06-22T02:06:01;5.93;;;5.43;;
15843;SDS011;50807;52.436;13.346;2023-06-22T02:06:36;5.73;;;5.30;;
15843;SDS011;50807;52.436;13.346;2023-06-22T02:07:12;6.80;;;6.23;;
15843;SDS011;50807;52.436;13.346;2023-06-22T02:07:49;6.33;;;5.83;;
15843;SDS011;50807;52.436;13.346;2023-06-22T02:08:30;6.17;;;5.67;;
15843;SDS011;50807;52.436;13.346;2023-06-22T02:09:09;6.27;;;5.77;;
15843;SDS011;50807;52.436;13.346;2023-06-22T02:09:46;6.23;;;5.83;;
15843;SDS011;50807;52.436;13.346;2023-06-22T02:10:21;6.27;;;5.87;;
15843;SDS011;50807;52.436;13.346;2023-06-22T02:10:55;6.17;;;5.73;;
15843;SDS011;50807;52.436;13.346;2023-06-22T02:11:30;6.53;;;6.03;;
15843;SDS011;50807;52.436;13.346;2023-06-22T02:12:04;6.13;;;5.67;;
15843;SDS011;50807;52.436;13.346;2023-06-22T02:12:38;6.47;;;5.97;;
15843;SDS011;50807;52.436;13.346;2023-06-22T02:13:11;6.50;;;6.00;;
15843;SDS011;50807;52.436;13.346;2023-06-22T02:13:44;6.00;;;5.50;;
15843;SDS011;50807;52.436;13.346;2023-06-22T02:14:16;6.43;;;5.87;;
15843;SDS011;50807;52.436;13.346;2023-06-22T02:14:50;6.30;;;5.80;;
15843;SDS011;50807;52.436;13.346;2023-06-22T02:15:23;6.17;;;5.70;;
15843;SDS011;50807;52.436;13.346;2023-06-22T02:15:54;6.37;;;5.77;;
15843;SDS011;50807;52.436;13.346;2023-06-22T02:16:26;5.93;;;5.53;;
15843;SDS011;50807;52.436;13.346;2023-06-22T02:16:59;6.40;;;5.90;;
15843;SDS011;50807;52.436;13.346;2023-06-22T02:17:30;5.00;;;4.60;;
15843;SDS011;50807;52.436;13.346;2023-06-22T02:18:03;6.67;;;6.17;;
15843;SDS011;50807;52.436;13.346;2023-06-22T02:18:35;5.90;;;5.50;;
15843;SDS011;50807;52.436;13.346;2023-06-22T02:19:07;6.37;;;5.87;;
15843;SDS011;50807;52.436;13.346;2023-06-22T02:19:38;6.10;;;5.70;;
15843;SDS011;50807;52.436;13.346;2023-06-22T02:20:12;6.13;;;5.63;;
15843;SDS011;50807;52.436;13.346;2023-06-22T02:20:44;6.10;;;5.70;;
15843;SDS011;50807;52.436;13.346;2023-06-22T02:21:15;6.47;;;5.97;;
15843;SDS011;50807;52.436;13.346;2023-06-22T02:21:46;6.17;;;5.77;;
15843;SDS011;50807;52.436;13.346;2023-06-22T02:22:17;6.30;;;5.70;;
15843;SDS011;50807;52.436;13.346;2023-06-22T02:22:48;6.20;;;5.70;;
15843;SDS011;50807;52.436;13.346;2023-06-22T02:23:20;6.60;;;6.10;;
15843;SDS011;50807;52.436;13.346;2023-06-22T02:23:51;6.80;;;6.30;;
15843;SDS011;50807;52.436;13.346;2023-06-22T02:24:22;6.60;;;6.10;;
15843;SDS011;50807;52.436;13.346;2023-06-22T02:25:01;6.53;;;6.03;;
15843;SDS011;50807;52.436;13.346;2023-06-22T02:25:36;7.23;;;6.63;;
15843;SDS011;50807;52.436;13.346;2023-06-22T02:26:15;7.20;;;6.50;;
15843;SDS011;50807;52.436;13.346;2023-06-22T02:26:49;6.13;;;5.70;;
15843;SDS011;50807;52.436;13.346;2023-06-22T02:27:20;6.93;;;6.33;;
15843;SDS011;50807;52.436;13.346;2023-06-22T02:27:52;6.43;;;5.93;;
15843;SDS011;50807;52.436;13.346;2023-06-22T02:28:22;7.27;;;6.67;;
15843;SDS011;50807;52.436;13.346;2023-06-22T02:28:53;6.83;;;6.23;;
15843;SDS011;50807;52.436;13.346;2023-06-22T02:29:24;7.37;;;6.53;;
15843;SDS011;50807;52.436;13.346;2023-06-22T02:29:58;6.50;;;6.00;;
15843;SDS011;50807;52.436;13.346;2023-06-22T02:30:28;7.10;;;6.50;;
15843;SDS011;50807;52.436;13.346;2023-06-22T02:30:59;6.73;;;6.23;;
15843;SDS011;50807;52.436;13.346;2023-06-22T02:31:31;7.40;;;6.90;;
15843;SDS011;50807;52.436;13.346;2023-06-22T02:32:02;7.43;;;6.83;;
15843;SDS011;50807;52.436;13.346;2023-06-22T02:32:34;7.27;;;6.77;;
15843;SDS011;50807;52.436;13.346;2023-06-22T02:33:06;7.00;;;6.50;;
15843;SDS011;50807;52.436;13.346;2023-06-22T02:33:36;6.20;;;5.70;;
15843;SDS011;50807;52.436;13.346;2023-06-22T02:34:07;6.07;;;5.60;;
15843;SDS011;50807;52.436;13.346;2023-06-22T02:34:39;7.20;;;6.70;;
15843;SDS011;50807;52.436;13.346;2023-06-22T02:35:10;7.10;;;6.60;;
15843;SDS011;50807;52.436;13.346;2023-06-22T02:35:41;7.30;;;6.67;;
15843;SDS011;50807;52.436;13.346;2023-06-22T02:36:15;7.17;;;6.57;;
15843;SDS011;50807;52.436;13.346;2023-06-22T02:36:46;7.03;;;6.43;;
15843;SDS011;50807;52.436;13.346;2023-06-22T02:37:20;7.17;;;6.67;;
15843;SDS011;50807;52.436;13.346;2023-06-22T02:37:55;6.77;;;6.27;;
15843;SDS011;50807;52.436;13.346;2023-06-22T02:38:26;6.67;;;6.03;;
15843;SDS011;50807;52.436;13.346;2023-06-22T02:38:56;6.33;;;5.83;;
15843;SDS011;50807;52.436;13.346;2023-06-22T02:39:31;6.63;;;6.13;;
15843;SDS011;50807;52.436;13.346;2023-06-22T02:40:01;7.47;;;6.77;;
15843;SDS011;50807;52.436;13.346;2023-06-22T02:40:34;7.37;;;6.70;;
15843;SDS011;50807;52.436;13.346;2023-06-22T02:41:05;7.63;;;7.03;;
15843;SDS011;50807;52.436;13.346;2023-06-22T02:41:36;7.23;;;6.73;;
15843;SDS011;50807;52.436;13.346;2023-06-22T02:42:08;7.77;;;7.17;;
15843;SDS011;50807;52.436;13.346;2023-06-22T02:42:40;7.60;;;7.00;;
15843;SDS011;50807;52.436;13.346;2023-06-22T02:43:11;7.90;;;7.20;;
15843;SDS011;50807;52.436;13.346;2023-06-22T02:43:44;6.50;;;6.00;;
15843;SDS011;50807;52.436;13.346;2023-06-22T02:44:15;7.03;;;6.43;;
15843;SDS011;50807;52.436;13.346;2023-06-22T02:44:47;7.07;;;6.57;;
15843;SDS011;50807;52.436;13.346;2023-06-22T02:45:20;7.40;;;6.80;;
15843;SDS011;50807;52.436;13.346;2023-06-22T02:46:27;6.63;;;6.13;;
15843;SDS011;50807;52.436;13.346;2023-06-22T02:46:59;7.27;;;6.70;;
15843;SDS011;50807;52.436;13.346;2023-06-22T02:47:29;7.80;;;7.20;;
15843;SDS011;50807;52.436;13.346;2023-06-22T02:48:00;7.80;;;7.30;;
15843;SDS011;50807;52.436;13.346;2023-06-22T02:48:32;7.97;;;7.27;;
15843;SDS011;50807;52.436;13.346;2023-06-22T02:49:03;7.53;;;6.93;;
15843;SDS011;50807;52.436;13.346;2023-06-22T02:49:34;7.83;;;7.23;;
15843;SDS011;50807;52.436;13.346;2023-06-22T02:50:06;7.10;;;6.60;;
15843;SDS011;50807;52.436;13.346;2023-06-22T02:50:38;7.70;;;7.10;;
15843;SDS011;50807;52.436;13.346;2023-06-22T02:51:09;7.70;;;7.10;;
15843;SDS011;50807;52.436;13.346;2023-06-22T02:51:42;7.60;;;7.07;;
15843;SDS011;50807;52.436;13.346;2023-06-22T02:52:15;7.30;;;6.80;;
15843;SDS011;50807;52.436;13.346;2023-06-22T02:52:46;7.00;;;6.50;;
15843;SDS011;50807;52.436;13.346;2023-06-22T02:53:18;6.97;;;6.47;;
15843;SDS011;50807;52.436;13.346;2023-06-22T02:53:49;7.43;;;6.93;;
15843;SDS011;50807;52.436;13.346;2023-06-22T02:54:22;7.53;;;6.93;;
15843;SDS011;50807;52.436;13.346;2023-06-22T02:54:53;7.67;;;7.07;;
15843;SDS011;50807;52.436;13.346;2023-06-22T02:55:24;8.20;;;7.40;;
15843;SDS011;50807;52.436;13.346;2023-06-22T02:55:55;9.57;;;6.93;;
15843;SDS011;50807;52.436;13.346;2023-06-22T02:56:28;8.07;;;7.47;;
15843;SDS011;50807;52.436;13.346;2023-06-22T02:57:00;7.50;;;6.90;;
15843;SDS011;50807;52.436;13.346;2023-06-22T02:57:32;7.07;;;6.57;;
15843;SDS011;50807;52.436;13.346;2023-06-22T02:58:04;7.60;;;7.00;;
15843;SDS011;50807;52.436;13.346;2023-06-22T02:58:35;7.10;;;6.50;;
15843;SDS011;50807;52.436;13.346;2023-06-22T02:59:08;6.93;;;6.43;;
15843;SDS011;50807;52.436;13.346;2023-06-22T02:59:40;6.97;;;6.47;;
15843;SDS011;50807;52.436;13.346;2023-06-22T03:00:12;7.27;;;6.60;;
15843;SDS011;50807;52.436;13.346;2023-06-22T03:00:48;7.63;;;7.03;;
15843;SDS011;50807;52.436;13.346;2023-06-22T03:01:22;7.30;;;6.60;;
15843;SDS011;50807;52.436;13.346;2023-06-22T03:01:54;7.13;;;6.63;;
15843;SDS011;50807;52.436;13.346;2023-06-22T03:02:25;7.60;;;7.00;;
15843;SDS011;50807;52.436;13.346;2023-06-22T03:02:57;8.03;;;7.43;;
15843;SDS011;50807;52.436;13.346;2023-06-22T03:03:29;7.60;;;7.00;;
15843;SDS011;50807;52.436;13.346;2023-06-22T03:04:00;7.93;;;7.23;;
15843;SDS011;50807;52.436;13.346;2023-06-22T03:04:30;8.17;;;7.57;;
15843;SDS011;50807;52.436;13.346;2023-06-22T03:05:02;7.47;;;6.63;;
15843;SDS011;50807;52.436;13.346;2023-06-22T03:05:34;7.23;;;6.70;;
15843;SDS011;50807;52.436;13.346;2023-06-22T03:06:05;7.50;;;6.90;;
15843;SDS011;50807;52.436;13.346;2023-06-22T03:06:36;7.50;;;6.90;;
15843;SDS011;50807;52.436;13.346;2023-06-22T03:07:10;7.10;;;6.50;;
15843;SDS011;50807;52.436;13.346;2023-06-22T03:07:42;7.27;;;6.73;;
15843;SDS011;50807;52.436;13.346;2023-06-22T03:08:13;7.63;;;7.03;;
15843;SDS011;50807;52.436;13.346;2023-06-22T03:08:43;8.07;;;7.27;;
15843;SDS011;50807;52.436;13.346;2023-06-22T03:09:15;7.90;;;7.20;;
15843;SDS011;50807;52.436;13.346;2023-06-22T03:09:46;8.17;;;7.47;;
15843;SDS011;50807;52.436;13.346;2023-06-22T03:10:17;8.03;;;7.33;;
15843;SDS011;50807;52.436;13.346;2023-06-22T03:10:49;7.10;;;6.50;;
15843;SDS011;50807;52.436;13.346;2023-06-22T03:11:19;7.43;;;6.80;;
15843;SDS011;50807;52.436;13.346;2023-06-22T03:11:50;7.67;;;7.07;;
15843;SDS011;50807;52.436;13.346;2023-06-22T03:12:21;7.93;;;7.33;;
15843;SDS011;50807;52.436;13.346;2023-06-22T03:12:53;8.07;;;7.47;;
15843;SDS011;50807;52.436;13.346;2023-06-22T03:13:24;7.60;;;7.00;;
15843;SDS011;50807;52.436;13.346;2023-06-22T03:13:55;7.67;;;6.97;;
15843;SDS011;50807;52.436;13.346;2023-06-22T03:14:27;8.40;;;7.60;;
15843;SDS011;50807;52.436;13.346;2023-06-22T03:14:57;8.40;;;7.80;;
15843;SDS011;50807;52.436;13.346;2023-06-22T03:15:28;8.33;;;7.73;;
15843;SDS011;50807;52.436;13.346;2023-06-22T03:16:02;8.30;;;7.70;;
15843;SDS011;50807;52.436;13.346;2023-06-22T03:16:34;8.47;;;7.67;;
15843;SDS011;50807;52.436;13.346;2023-06-22T03:17:04;8.10;;;7.40;;
15843;SDS011;50807;52.436;13.346;2023-06-22T03:17:36;7.40;;;6.80;;
15843;SDS011;50807;52.436;13.346;2023-06-22T03:18:09;7.43;;;6.83;;